Time;durP1;ratioP1;P1;durP2;ratioP2;P2;SDS_P1;SDS_P2;PMS_P1;PMS_P2;Temp;Humidity;BMP_temperature;BMP_pressure;BME280_temperature;BME280_humidity;BME280_pressure;Samples;Min_cycle;Max_cycle;Signal;HPM_P1;HPM_P2
2022/11/21 00:00:31;;;;;;;21.45;13.48;;;;;;;;;;5110834;27;20347;-68
2022/11/21 00:03:00;;;;;;;22.40;13.25;;;;;;;;;;5121412;27;20389;-67
2022/11/21 00:05:26;;;;;;;21.42;15.95;;;;;;;;;;5116507;27;20396;-68
2022/11/21 00:07:52;;;;;;;22.38;15.23;;;;;;;;;;5129050;27;20385;-68
2022/11/21 00:10:18;;;;;;;21.50;14.65;;;;;;;;;;5102325;27;20629;-68
2022/11/21 00:12:44;;;;;;;22.88;15.25;;;;;;;;;;5096237;27;20047;-68
2022/11/21 00:15:10;;;;;;;21.33;14.93;;;;;;;;;;5109448;27;20047;-68
2022/11/21 00:17:37;;;;;;;21.83;15.52;;;;;;;;;;5107602;27;20047;-68
2022/11/21 00:20:03;;;;;;;22.00;14.18;;;;;;;;;;5125123;27;20041;-68
2022/11/21 00:22:30;;;;;;;21.90;14.07;;;;;;;;;;5121645;27;20511;-68
2022/11/21 00:24:57;;;;;;;20.75;13.90;;;;;;;;;;5120733;27;20810;-68
2022/11/21 00:27:23;;;;;;;22.13;14.25;;;;;;;;;;5127197;27;20080;-68
2022/11/21 00:29:49;;;;;;;22.58;14.20;;;;;;;;;;5117095;27;20127;-68
2022/11/21 00:32:15;;;;;;;24.48;14.93;;;;;;;;;;5120822;27;20038;-69
2022/11/21 00:34:41;;;;;;;21.50;13.73;;;;;;;;;;5121787;27;20038;-68
2022/11/21 00:37:07;;;;;;;23.85;15.65;;;;;;;;;;5108034;27;20053;-68
2022/11/21 00:39:33;;;;;;;24.75;14.77;;;;;;;;;;5104723;28;20504;-68
2022/11/21 00:41:59;;;;;;;19.10;12.80;;;;;;;;;;5115734;27;20039;-68
2022/11/21 00:44:25;;;;;;;21.38;13.68;;;;;;;;;;5113644;27;20063;-68
2022/11/21 00:46:51;;;;;;;27.73;16.23;;;;;;;;;;5107914;27;20049;-68
2022/11/21 00:49:17;;;;;;;24.67;15.10;;;;;;;;;;5095877;27;20047;-68
2022/11/21 00:51:44;;;;;;;23.98;13.68;;;;;;;;;;5113762;27;20488;-68
2022/11/21 00:54:10;;;;;;;20.70;14.43;;;;;;;;;;5108378;27;20039;-68
2022/11/21 00:56:36;;;;;;;20.98;12.80;;;;;;;;;;5127986;27;20399;-68
2022/11/21 00:59:02;;;;;;;21.83;14.90;;;;;;;;;;5088914;28;20040;-68
2022/11/21 01:01:28;;;;;;;24.08;16.13;;;;;;;;;;5121757;27;20557;-68
2022/11/21 01:03:54;;;;;;;21.88;15.02;;;;;;;;;;5118750;27;20031;-68
2022/11/21 01:06:20;;;;;;;20.70;14.35;;;;;;;;;;5109470;27;20429;-68
2022/11/21 01:08:46;;;;;;;21.10;14.73;;;;;;;;;;5121526;27;20063;-68
2022/11/21 01:11:14;;;;;;;24.73;14.85;;;;;;;;;;5121091;27;20055;-68
2022/11/21 01:13:41;;;;;;;20.98;13.88;;;;;;;;;;5123219;27;20069;-68
2022/11/21 01:16:15;;;;;;;22.42;16.33;;;;;;;;;;5121468;27;20070;-68
2022/11/21 01:18:42;;;;;;;21.52;14.35;;;;;;;;;;5125421;28;20039;-68
2022/11/21 01:21:12;;;;;;;27.00;15.52;;;;;;;;;;5121014;28;20400;-68
2022/11/21 01:23:38;;;;;;;21.63;14.52;;;;;;;;;;5101065;28;20032;-68
2022/11/21 01:26:05;;;;;;;19.48;14.65;;;;;;;;;;5126594;28;20035;-68
2022/11/21 01:28:32;;;;;;;22.50;14.75;;;;;;;;;;5123956;27;20035;-68
2022/11/21 01:31:08;;;;;;;20.33;14.27;;;;;;;;;;5124840;27;20039;-68
2022/11/21 01:33:35;;;;;;;17.98;12.75;;;;;;;;;;5130869;27;20035;-68
2022/11/21 01:36:07;;;;;;;21.17;12.65;;;;;;;;;;5130284;27;20074;-68
2022/11/21 01:38:33;;;;;;;22.30;13.73;;;;;;;;;;5116695;27;20053;-68
2022/11/21 01:41:00;;;;;;;22.98;14.50;;;;;;;;;;5124078;27;20062;-68
2022/11/21 01:43:26;;;;;;;19.80;14.65;;;;;;;;;;5128830;27;20102;-68
2022/11/21 01:45:55;;;;;;;25.17;15.20;;;;;;;;;;5127304;27;20049;-68
2022/11/21 01:48:27;;;;;;;24.25;14.38;;;;;;;;;;5121635;27;20051;-68
2022/11/21 01:50:54;;;;;;;23.20;15.13;;;;;;;;;;5124018;27;20043;-68
2022/11/21 01:53:20;;;;;;;21.75;13.98;;;;;;;;;;5120411;27;20685;-68
2022/11/21 01:55:46;;;;;;;23.15;14.15;;;;;;;;;;5127751;27;20031;-68
2022/11/21 01:58:13;;;;;;;20.27;12.73;;;;;;;;;;5127510;27;20194;-68
2022/11/21 02:00:40;;;;;;;21.33;13.88;;;;;;;;;;5103913;28;20047;-68
2022/11/21 02:03:10;;;;;;;21.02;13.43;;;;;;;;;;5125668;27;20138;-68
2022/11/21 02:05:36;;;;;;;23.73;15.05;;;;;;;;;;5125374;27;20031;-68
2022/11/21 02:08:05;;;;;;;31.20;15.80;;;;;;;;;;5117677;27;20071;-68
2022/11/21 02:10:33;;;;;;;24.40;14.15;;;;;;;;;;5118886;27;20039;-68
2022/11/21 02:13:00;;;;;;;18.98;14.07;;;;;;;;;;5109614;27;20625;-68
2022/11/21 02:15:27;;;;;;;24.67;15.23;;;;;;;;;;5129514;27;20535;-68
2022/11/21 02:17:53;;;;;;;21.55;14.18;;;;;;;;;;5124672;27;20078;-68
2022/11/21 02:20:22;;;;;;;24.42;15.27;;;;;;;;;;5130897;27;20039;-68
2022/11/21 02:23:07;;;;;;;23.50;13.77;;;;;;;;;;5119933;27;20433;-68
2022/11/21 02:25:36;;;;;;;25.58;15.20;;;;;;;;;;5125238;27;20492;-68
2022/11/21 02:28:05;;;;;;;26.90;15.90;;;;;;;;;;5126976;27;20114;-69
2022/11/21 02:30:32;;;;;;;21.42;15.65;;;;;;;;;;5110838;28;20047;-68
2022/11/21 02:32:58;;;;;;;20.25;14.50;;;;;;;;;;5128677;27;20096;-69
2022/11/21 02:35:24;;;;;;;21.73;13.60;;;;;;;;;;5119851;27;20035;-69
2022/11/21 02:38:09;;;;;;;21.83;14.25;;;;;;;;;;5118095;27;20035;-69
2022/11/21 02:40:37;;;;;;;24.77;15.38;;;;;;;;;;5115400;27;20607;-68
2022/11/21 02:43:07;;;;;;;24.33;15.68;;;;;;;;;;5124250;27;20096;-68
2022/11/21 02:45:36;;;;;;;23.30;16.13;;;;;;;;;;5130936;27;20053;-68
2022/11/21 02:48:03;;;;;;;20.25;14.38;;;;;;;;;;5126151;27;20397;-69
2022/11/21 02:50:30;;;;;;;21.17;13.93;;;;;;;;;;5124548;27;20034;-68
2022/11/21 02:52:56;;;;;;;24.25;14.77;;;;;;;;;;5118007;27;20059;-69
2022/11/21 02:55:23;;;;;;;24.02;14.95;;;;;;;;;;5112726;27;20035;-69
2022/11/21 02:57:49;;;;;;;21.35;13.60;;;;;;;;;;5127926;27;20039;-69
2022/11/21 03:00:16;;;;;;;20.00;13.73;;;;;;;;;;5110243;28;20048;-69
2022/11/21 03:02:42;;;;;;;22.02;15.00;;;;;;;;;;5120396;27;20563;-69
2022/11/21 03:05:10;;;;;;;23.85;15.48;;;;;;;;;;5116742;27;20140;-68
2022/11/21 03:07:36;;;;;;;19.05;14.30;;;;;;;;;;5122122;27;20037;-69
2022/11/21 03:10:02;;;;;;;24.23;15.70;;;;;;;;;;5105726;27;20035;-69
2022/11/21 03:12:28;;;;;;;26.10;14.63;;;;;;;;;;5128485;27;20054;-68
2022/11/21 03:14:55;;;;;;;24.48;14.82;;;;;;;;;;5112926;27;20047;-68
2022/11/21 03:17:21;;;;;;;27.23;15.18;;;;;;;;;;5109627;27;20416;-68
2022/11/21 03:19:47;;;;;;;20.58;14.02;;;;;;;;;;5127102;27;20038;-68
2022/11/21 03:22:14;;;;;;;23.20;14.43;;;;;;;;;;5108093;27;20043;-68
2022/11/21 03:24:40;;;;;;;21.20;14.35;;;;;;;;;;5116543;27;20424;-68
2022/11/21 03:27:07;;;;;;;25.17;14.85;;;;;;;;;;5110273;27;20057;-68
2022/11/21 03:29:33;;;;;;;22.55;15.77;;;;;;;;;;5129987;27;20094;-68
2022/11/21 03:31:59;;;;;;;24.45;15.23;;;;;;;;;;5116702;27;20047;-68
2022/11/21 03:34:25;;;;;;;26.52;15.15;;;;;;;;;;5125559;27;20099;-69
2022/11/21 03:36:51;;;;;;;24.77;14.90;;;;;;;;;;5117748;27;20035;-68
2022/11/21 03:39:17;;;;;;;22.40;14.55;;;;;;;;;;5113250;27;20134;-68
2022/11/21 03:41:43;;;;;;;22.58;15.88;;;;;;;;;;5128005;27;20046;-68
2022/11/21 03:44:11;;;;;;;29.13;16.27;;;;;;;;;;5122800;27;20038;-68
2022/11/21 03:46:38;;;;;;;24.42;15.35;;;;;;;;;;5121004;27;20039;-68
2022/11/21 03:49:05;;;;;;;21.77;14.50;;;;;;;;;;5111676;27;20043;-68
2022/11/21 03:51:32;;;;;;;22.83;15.38;;;;;;;;;;5104864;28;20040;-68
2022/11/21 03:53:58;;;;;;;28.33;15.50;;;;;;;;;;5125047;27;20036;-69
2022/11/21 03:56:25;;;;;;;30.13;17.08;;;;;;;;;;5121846;27;20036;-68
2022/11/21 03:58:51;;;;;;;25.58;15.88;;;;;;;;;;5128287;27;20122;-69
2022/11/21 04:01:17;;;;;;;28.00;17.85;;;;;;;;;;5126745;27;20035;-68
2022/11/21 04:03:44;;;;;;;27.40;17.25;;;;;;;;;;5126127;27;20042;-69
2022/11/21 04:06:11;;;;;;;30.70;18.80;;;;;;;;;;5112189;27;20408;-69
2022/11/21 04:08:37;;;;;;;22.80;17.40;;;;;;;;;;5121192;27;20038;-69
2022/11/21 04:11:04;;;;;;;31.02;18.73;;;;;;;;;;5123772;27;20066;-69
2022/11/21 04:13:30;;;;;;;25.52;17.38;;;;;;;;;;5119137;27;20385;-68
2022/11/21 04:15:56;;;;;;;26.30;17.58;;;;;;;;;;5120806;27;20151;-68
2022/11/21 04:18:22;;;;;;;23.13;16.25;;;;;;;;;;5112136;27;20057;-69
2022/11/21 04:20:48;;;;;;;23.05;16.70;;;;;;;;;;5095865;27;20485;-69
2022/11/21 04:23:15;;;;;;;25.20;16.13;;;;;;;;;;5117717;27;20093;-69
2022/11/21 04:25:41;;;;;;;25.75;17.67;;;;;;;;;;5108540;27;20039;-69
2022/11/21 04:28:07;;;;;;;29.13;17.27;;;;;;;;;;5119602;27;20175;-68
2022/11/21 04:30:34;;;;;;;28.05;18.25;;;;;;;;;;5115225;27;20037;-68
2022/11/21 04:33:00;;;;;;;29.40;17.75;;;;;;;;;;5121255;27;20043;-69
2022/11/21 04:35:26;;;;;;;27.65;17.42;;;;;;;;;;5125653;27;20038;-69
2022/11/21 04:37:52;;;;;;;25.25;16.27;;;;;;;;;;5102590;27;20031;-68
2022/11/21 04:40:19;;;;;;;27.05;17.52;;;;;;;;;;5126671;27;20081;-68
2022/11/21 04:42:45;;;;;;;30.02;17.27;;;;;;;;;;5117430;27;20426;-68
2022/11/21 04:45:12;;;;;;;30.95;17.85;;;;;;;;;;5124383;27;20212;-68
2022/11/21 04:47:42;;;;;;;27.35;18.30;;;;;;;;;;5111693;27;20508;-69
2022/11/21 04:50:09;;;;;;;26.42;16.63;;;;;;;;;;5118022;27;20591;-68
2022/11/21 04:52:36;;;;;;;26.90;17.50;;;;;;;;;;5114608;27;20462;-68
2022/11/21 04:55:02;;;;;;;28.75;19.02;;;;;;;;;;5112497;27;20040;-69
2022/11/21 04:57:28;;;;;;;26.90;17.50;;;;;;;;;;5126601;27;20039;-66
2022/11/21 04:59:55;;;;;;;31.70;17.58;;;;;;;;;;5106080;27;20046;-68
2022/11/21 05:02:21;;;;;;;27.08;17.33;;;;;;;;;;5117233;27;20090;-68
2022/11/21 05:04:47;;;;;;;24.60;16.30;;;;;;;;;;5122693;27;20110;-69
2022/11/21 05:07:14;;;;;;;26.38;15.90;;;;;;;;;;5116349;27;20046;-69
2022/11/21 05:09:40;;;;;;;24.40;15.88;;;;;;;;;;5105286;28;20043;-69
2022/11/21 05:14:51;;;;;;;23.98;16.10;;;;;;;;;;5125889;27;20492;-69
2022/11/21 05:17:17;;;;;;;28.05;17.90;;;;;;;;;;5113600;27;20131;-68
2022/11/21 05:19:43;;;;;;;23.77;17.27;;;;;;;;;;5120249;28;20044;-68
2022/11/21 05:22:09;;;;;;;32.30;18.85;;;;;;;;;;5108431;28;20032;-68
2022/11/21 05:24:36;;;;;;;28.00;17.33;;;;;;;;;;5124609;28;20206;-68
2022/11/21 05:27:02;;;;;;;27.00;16.52;;;;;;;;;;5115133;28;20115;-68
2022/11/21 05:29:28;;;;;;;22.90;15.43;;;;;;;;;;5107495;28;20075;-68
2022/11/21 05:31:54;;;;;;;24.83;17.00;;;;;;;;;;5108227;28;20434;-68
2022/11/21 05:34:20;;;;;;;31.83;19.23;;;;;;;;;;5108499;28;20030;-68
2022/11/21 05:36:46;;;;;;;27.75;18.70;;;;;;;;;;5122629;28;20042;-68
2022/11/21 05:39:13;;;;;;;26.95;16.98;;;;;;;;;;5110439;28;20043;-68
2022/11/21 05:41:39;;;;;;;28.20;17.05;;;;;;;;;;5120726;28;20032;-69
2022/11/21 05:44:05;;;;;;;25.27;17.55;;;;;;;;;;5105290;28;20534;-68
2022/11/21 05:46:31;;;;;;;28.70;18.13;;;;;;;;;;5117155;28;20042;-69
2022/11/21 05:48:57;;;;;;;31.60;20.08;;;;;;;;;;5123902;28;20484;-68
2022/11/21 05:51:23;;;;;;;28.75;18.25;;;;;;;;;;5102040;28;20150;-68
2022/11/21 05:53:50;;;;;;;26.08;17.23;;;;;;;;;;5113236;28;20038;-68
2022/11/21 05:56:17;;;;;;;30.17;18.40;;;;;;;;;;5120947;28;20031;-68
2022/11/21 05:58:43;;;;;;;28.20;18.17;;;;;;;;;;5122739;28;20043;-68
2022/11/21 06:01:10;;;;;;;34.28;20.13;;;;;;;;;;5122563;28;20555;-68
2022/11/21 06:03:38;;;;;;;31.92;19.00;;;;;;;;;;5126915;28;20038;-68
2022/11/21 06:06:11;;;;;;;29.27;18.17;;;;;;;;;;5124693;28;20467;-68
2022/11/21 06:08:38;;;;;;;25.20;16.30;;;;;;;;;;5126562;28;20035;-68
2022/11/21 06:11:05;;;;;;;33.33;20.17;;;;;;;;;;5119792;28;20055;-68
2022/11/21 06:13:32;;;;;;;33.92;20.08;;;;;;;;;;5109666;28;20047;-68
2022/11/21 06:15:58;;;;;;;27.05;18.50;;;;;;;;;;5127539;27;20047;-68
2022/11/21 06:18:25;;;;;;;27.80;17.48;;;;;;;;;;5111602;27;20084;-68
2022/11/21 06:20:51;;;;;;;32.53;19.05;;;;;;;;;;5122289;27;20537;-68
2022/11/21 06:23:17;;;;;;;30.70;18.50;;;;;;;;;;5128022;27;20156;-68
2022/11/21 06:25:44;;;;;;;32.42;19.95;;;;;;;;;;5110125;27;20989;-68
2022/11/21 06:28:10;;;;;;;33.00;19.27;;;;;;;;;;5122195;27;20043;-68
2022/11/21 06:30:37;;;;;;;29.60;19.08;;;;;;;;;;5128476;27;20044;-68
2022/11/21 06:33:06;;;;;;;33.08;20.70;;;;;;;;;;5124031;27;20074;-68
2022/11/21 06:35:32;;;;;;;30.80;19.92;;;;;;;;;;5106429;27;20487;-68
2022/11/21 06:37:59;;;;;;;35.83;19.85;;;;;;;;;;5114719;27;20044;-68
2022/11/21 06:40:25;;;;;;;33.42;19.38;;;;;;;;;;5109535;27;20377;-68
2022/11/21 06:42:51;;;;;;;27.92;17.20;;;;;;;;;;5122124;27;20148;-68
2022/11/21 06:45:17;;;;;;;32.50;18.77;;;;;;;;;;5122967;27;20038;-68
2022/11/21 06:47:43;;;;;;;30.17;17.75;;;;;;;;;;5117104;27;20031;-68
2022/11/21 06:50:10;;;;;;;32.47;19.73;;;;;;;;;;5123967;27;20114;-68
2022/11/21 06:52:36;;;;;;;31.23;18.55;;;;;;;;;;5120350;27;20408;-68
2022/11/21 06:55:02;;;;;;;27.65;17.52;;;;;;;;;;5127779;27;20036;-68
2022/11/21 06:57:28;;;;;;;26.88;18.20;;;;;;;;;;5128428;27;20487;-68
2022/11/21 06:59:54;;;;;;;32.38;18.85;;;;;;;;;;5109152;27;20073;-68
2022/11/21 07:02:20;;;;;;;27.45;18.58;;;;;;;;;;5128243;27;20463;-68
2022/11/21 07:04:46;;;;;;;35.20;20.55;;;;;;;;;;5118833;27;20175;-68
2022/11/21 07:07:12;;;;;;;31.73;18.98;;;;;;;;;;5107556;28;20028;-68
2022/11/21 07:09:39;;;;;;;31.40;20.20;;;;;;;;;;5100112;27;20039;-68
2022/11/21 07:14:49;;;;;;;28.55;17.73;;;;;;;;;;5115427;27;20107;-68
2022/11/21 07:17:16;;;;;;;31.77;18.35;;;;;;;;;;5123734;27;20039;-68
2022/11/21 07:19:42;;;;;;;29.55;18.92;;;;;;;;;;5076911;27;20066;-68
2022/11/21 07:22:08;;;;;;;30.88;18.48;;;;;;;;;;5105009;27;20027;-68
2022/11/21 07:24:34;;;;;;;33.55;22.73;;;;;;;;;;5115764;27;20032;-68
2022/11/21 07:27:01;;;;;;;27.95;18.00;;;;;;;;;;5125933;27;20114;-68
2022/11/21 07:29:27;;;;;;;22.95;17.40;;;;;;;;;;5116217;27;20035;-68
2022/11/21 07:31:54;;;;;;;26.38;18.33;;;;;;;;;;5109926;27;20078;-68
2022/11/21 07:34:20;;;;;;;31.30;19.70;;;;;;;;;;5109588;27;20074;-68
2022/11/21 07:36:46;;;;;;;32.15;19.90;;;;;;;;;;5125775;27;20382;-68
2022/11/21 07:39:12;;;;;;;28.52;17.67;;;;;;;;;;5100613;27;20396;-68
2022/11/21 07:41:38;;;;;;;26.92;17.73;;;;;;;;;;5127715;27;20518;-68
2022/11/21 07:44:04;;;;;;;31.52;18.35;;;;;;;;;;5115894;27;20121;-68
2022/11/21 07:46:30;;;;;;;30.90;18.92;;;;;;;;;;5116740;27;20118;-68
2022/11/21 07:48:57;;;;;;;25.45;17.75;;;;;;;;;;5119618;27;20555;-68
2022/11/21 07:51:23;;;;;;;30.27;20.23;;;;;;;;;;5125279;27;20039;-68
2022/11/21 07:53:49;;;;;;;31.38;18.50;;;;;;;;;;5126051;27;20039;-68
2022/11/21 07:56:15;;;;;;;29.83;19.20;;;;;;;;;;5125593;27;20104;-68
2022/11/21 07:58:41;;;;;;;33.25;21.92;;;;;;;;;;5122470;27;20050;-68
2022/11/21 08:01:07;;;;;;;32.80;20.52;;;;;;;;;;5126121;27;20069;-68
2022/11/21 08:03:34;;;;;;;36.92;21.08;;;;;;;;;;5108453;27;20031;-68
2022/11/21 08:06:03;;;;;;;34.10;20.05;;;;;;;;;;5127278;27;20039;-68
2022/11/21 08:08:30;;;;;;;31.85;19.98;;;;;;;;;;5117529;27;20411;-68
2022/11/21 08:10:56;;;;;;;29.33;18.88;;;;;;;;;;5116019;27;20197;-68
2022/11/21 08:13:22;;;;;;;30.73;18.83;;;;;;;;;;5110798;27;20130;-68
2022/11/21 08:15:48;;;;;;;34.53;20.13;;;;;;;;;;5122149;27;20063;-68
2022/11/21 08:18:19;;;;;;;32.10;18.85;;;;;;;;;;5125329;27;20135;-68
2022/11/21 08:20:45;;;;;;;30.80;20.17;;;;;;;;;;5121022;27;20488;-68
2022/11/21 08:23:11;;;;;;;29.40;17.77;;;;;;;;;;5103047;27;20031;-68
2022/11/21 08:25:38;;;;;;;26.30;17.38;;;;;;;;;;5117101;27;20034;-68
2022/11/21 08:28:05;;;;;;;29.27;18.17;;;;;;;;;;5109985;27;20373;-68
2022/11/21 08:30:32;;;;;;;30.08;18.17;;;;;;;;;;5127174;27;20512;-68
2022/11/21 08:32:58;;;;;;;26.40;18.48;;;;;;;;;;5087343;27;20047;-68
2022/11/21 08:35:27;;;;;;;31.90;19.55;;;;;;;;;;5124768;27;20250;-68
2022/11/21 08:38:01;;;;;;;30.65;18.20;;;;;;;;;;5128336;27;20067;-68
2022/11/21 08:40:28;;;;;;;28.83;17.80;;;;;;;;;;5121905;27;20039;-68
2022/11/21 08:42:57;;;;;;;26.13;16.27;;;;;;;;;;5126385;27;20043;-68
2022/11/21 08:45:24;;;;;;;25.02;17.23;;;;;;;;;;5108720;27;20673;-68
2022/11/21 08:47:51;;;;;;;43.42;18.77;;;;;;;;;;5120462;27;20039;-68
2022/11/21 08:50:17;;;;;;;26.17;16.30;;;;;;;;;;5105854;27;20485;-68
2022/11/21 08:52:43;;;;;;;26.67;19.35;;;;;;;;;;5118772;27;20297;-68
2022/11/21 08:55:09;;;;;;;20.90;15.40;;;;;;;;;;5121224;27;20078;-69
2022/11/21 08:57:41;;;;;;;25.42;17.63;;;;;;;;;;5122003;27;20035;-68
2022/11/21 09:00:08;;;;;;;30.88;19.45;;;;;;;;;;5087208;27;20036;-68
2022/11/21 09:02:35;;;;;;;27.67;17.50;;;;;;;;;;5110357;27;20031;-69
2022/11/21 09:05:01;;;;;;;30.95;17.92;;;;;;;;;;5099044;28;20043;-69
2022/11/21 09:07:27;;;;;;;33.05;19.95;;;;;;;;;;5120579;27;20042;-68
2022/11/21 09:09:53;;;;;;;24.40;16.48;;;;;;;;;;5118473;27;20039;-68
2022/11/21 09:12:19;;;;;;;33.95;19.45;;;;;;;;;;5118948;27;20060;-68
2022/11/21 09:20:14;;;;;;;31.23;19.33;;;;;;;;;;5106973;27;20047;-68
2022/11/21 09:22:41;;;;;;;24.65;17.35;;;;;;;;;;5107571;28;20039;-68
2022/11/21 09:25:07;;;;;;;24.75;14.63;;;;;;;;;;5112920;28;20118;-68
2022/11/21 09:27:33;;;;;;;24.10;16.35;;;;;;;;;;5115103;28;20027;-68
2022/11/21 09:29:59;;;;;;;23.23;17.08;;;;;;;;;;5109749;28;20515;-68
2022/11/21 09:32:25;;;;;;;20.20;13.57;;;;;;;;;;5114776;28;20110;-68
2022/11/21 09:34:52;;;;;;;22.08;14.70;;;;;;;;;;5116870;28;20039;-68
2022/11/21 09:37:18;;;;;;;26.40;15.70;;;;;;;;;;5096351;28;20039;-68
2022/11/21 09:39:44;;;;;;;18.27;14.25;;;;;;;;;;5074192;28;20044;-68
2022/11/21 09:42:10;;;;;;;22.33;14.63;;;;;;;;;;5095816;28;20036;-68
2022/11/21 09:44:54;;;;;;;23.38;14.88;;;;;;;;;;5124914;28;20061;-68
2022/11/21 09:47:27;;;;;;;27.05;16.33;;;;;;;;;;5113798;28;20035;-67
2022/11/21 09:49:53;;;;;;;;;;;;;;;;;;5117871;27;20047;-69
2022/11/21 09:52:20;;;;;;;25.20;16.05;;;;;;;;;;5107834;27;19915;-68
2022/11/21 09:54:57;;;;;;;24.00;15.15;;;;;;;;;;5115045;27;20130;-68
2022/11/21 09:57:25;;;;;;;26.05;16.95;;;;;;;;;;5109325;27;20236;-68
2022/11/21 09:59:51;;;;;;;26.02;17.50;;;;;;;;;;5107007;27;20070;-68
2022/11/21 10:02:21;;;;;;;23.75;16.10;;;;;;;;;;5116732;27;20028;-68
2022/11/21 10:04:48;;;;;;;28.58;17.42;;;;;;;;;;5106804;27;20049;-68
2022/11/21 10:07:17;;;;;;;30.17;17.17;;;;;;;;;;5118046;27;20114;-69
2022/11/21 10:09:43;;;;;;;24.30;15.50;;;;;;;;;;5128200;27;20433;-68
2022/11/21 10:15:16;;;;;;;24.05;14.13;;;;;;;;;;5123466;27;20486;-70
2022/11/21 10:17:54;;;;;;;33.58;13.43;;;;;;;;;;5107161;27;20047;-68
2022/11/21 10:20:23;;;;;;;22.67;14.70;;;;;;;;;;5118816;27;20043;-68
2022/11/21 10:22:52;;;;;;;21.55;13.40;;;;;;;;;;5119411;27;20044;-68
2022/11/21 10:25:24;;;;;;;24.23;14.00;;;;;;;;;;5124670;27;20110;-68
2022/11/21 10:27:53;;;;;;;21.58;12.57;;;;;;;;;;5088828;27;20085;-68
2022/11/21 10:30:20;;;;;;;18.48;11.65;;;;;;;;;;5111990;27;20120;-68
2022/11/21 10:32:48;;;;;;;22.25;13.32;;;;;;;;;;5104026;27;20035;-69
2022/11/21 10:35:17;;;;;;;21.05;11.77;;;;;;;;;;5123442;27;20116;-68
2022/11/21 10:37:46;;;;;;;14.13;10.32;;;;;;;;;;5109837;27;20105;-68
2022/11/21 10:40:33;;;;;;;18.00;11.45;;;;;;;;;;5086699;27;20043;-66
2022/11/21 10:45:15;;;;;;;17.15;11.77;;;;;;;;;;5109379;27;20071;-66
2022/11/21 10:45:51;;;;;;;21.65;12.93;;;;;;;;;;5110257;27;20050;-67
2022/11/21 10:48:17;;;;;;;19.02;12.63;;;;;;;;;;5109623;27;20062;-67
2022/11/21 10:50:46;;;;;;;25.77;14.20;;;;;;;;;;5107847;27;20460;-67
2022/11/21 10:56:09;;;;;;;20.35;12.05;;;;;;;;;;5123412;27;20564;-69
2022/11/21 10:58:43;;;;;;;19.08;11.68;;;;;;;;;;5105875;27;20042;-69
2022/11/21 11:01:35;;;;;;;16.23;11.48;;;;;;;;;;5121284;27;20420;-69
2022/11/21 11:04:11;;;;;;;17.80;12.57;;;;;;;;;;5124961;27;20047;-68
2022/11/21 11:06:41;;;;;;;17.23;11.82;;;;;;;;;;5111697;27;20046;-69
2022/11/21 11:09:21;;;;;;;19.75;11.38;;;;;;;;;;5128917;27;20100;-69
2022/11/21 11:11:47;;;;;;;20.00;11.25;;;;;;;;;;5109003;27;20086;-68
2022/11/21 11:14:14;;;;;;;18.20;11.07;;;;;;;;;;5092822;27;20078;-69
2022/11/21 11:16:45;;;;;;;19.35;11.10;;;;;;;;;;5127196;27;20167;-70
2022/11/21 11:19:14;;;;;;;18.77;11.63;;;;;;;;;;5083063;27;20072;-69
2022/11/21 11:21:40;;;;;;;16.00;10.02;;;;;;;;;;5126178;27;20096;-69
2022/11/21 11:24:06;;;;;;;17.23;10.77;;;;;;;;;;5121734;27;20386;-69
2022/11/21 11:26:32;;;;;;;16.13;10.93;;;;;;;;;;5120212;27;20031;-68
2022/11/21 11:29:29;;;;;;;16.98;10.88;;;;;;;;;;5122648;27;20072;-69
2022/11/21 11:31:56;;;;;;;15.68;10.88;;;;;;;;;;5092532;27;20138;-69
2022/11/21 11:34:23;;;;;;;16.45;10.52;;;;;;;;;;5125261;27;20039;-69
2022/11/21 11:37:05;;;;;;;13.27;10.07;;;;;;;;;;5106659;27;20039;-69
2022/11/21 11:39:39;;;;;;;14.75;10.05;;;;;;;;;;5110565;27;20039;-69
2022/11/21 11:47:52;;;;;;;16.08;10.40;;;;;;;;;;5107656;27;20084;-68
2022/11/21 11:50:21;;;;;;;16.40;11.27;;;;;;;;;;5095850;27;20039;-69
2022/11/21 11:52:50;;;;;;;17.05;10.88;;;;;;;;;;5106479;28;20039;-69
2022/11/21 11:55:45;;;;;;;13.88;10.07;;;;;;;;;;5104187;28;20050;-69
2022/11/21 11:58:21;;;;;;;19.25;11.05;;;;;;;;;;5098669;27;20057;-69
2022/11/21 12:00:50;;;;;;;19.08;11.45;;;;;;;;;;5104903;27;20039;-69
2022/11/21 12:03:19;;;;;;;14.13;9.82;;;;;;;;;;5106919;27;20091;-69
2022/11/21 12:06:06;;;;;;;14.00;9.38;;;;;;;;;;5103049;27;20039;-69
2022/11/21 12:08:39;;;;;;;16.17;10.05;;;;;;;;;;5101873;27;20071;-69
2022/11/21 12:14:01;;;;;;;17.10;11.02;;;;;;;;;;5121242;27;20076;-69
2022/11/21 12:16:29;;;;;;;15.50;10.60;;;;;;;;;;5090776;27;20038;-68
2022/11/21 12:18:59;;;;;;;17.90;10.23;;;;;;;;;;5074760;27;20046;-69
2022/11/21 12:21:26;;;;;;;12.95;9.32;;;;;;;;;;5119359;27;20096;-69
2022/11/21 12:23:53;;;;;;;15.32;9.88;;;;;;;;;;5124956;27;20073;-68
2022/11/21 12:26:28;;;;;;;17.80;9.95;;;;;;;;;;5103243;28;20027;-68
2022/11/21 12:29:00;;;;;;;13.88;9.07;;;;;;;;;;5117546;27;20039;-69
2022/11/21 12:31:34;;;;;;;15.65;9.50;;;;;;;;;;5106191;27;20039;-70
2022/11/21 12:34:19;;;;;;;15.18;9.30;;;;;;;;;;5122797;27;20035;-68
2022/11/21 12:36:45;;;;;;;12.60;8.57;;;;;;;;;;5106409;27;20488;-68
2022/11/21 12:39:31;;;;;;;15.48;8.50;;;;;;;;;;5103754;28;20073;-68
2022/11/21 12:45:20;;;;;;;16.25;9.90;;;;;;;;;;5122090;27;20039;-69
2022/11/21 12:54:29;;;;;;;10.55;7.63;;;;;;;;;;5091969;27;20044;-68
2022/11/21 12:57:04;;;;;;;12.13;8.65;;;;;;;;;;5091496;27;20117;-68
2022/11/21 12:59:32;;;;;;;11.90;7.95;;;;;;;;;;5106203;27;20036;-68
2022/11/21 13:02:17;;;;;;;15.55;8.93;;;;;;;;;;5121372;27;20434;-68
2022/11/21 13:04:45;;;;;;;12.50;8.10;;;;;;;;;;5116387;27;20486;-69
2022/11/21 13:07:11;;;;;;;13.88;8.15;;;;;;;;;;5117726;27;20088;-68
2022/11/21 13:09:42;;;;;;;13.68;8.25;;;;;;;;;;5103703;28;20031;-69
2022/11/21 13:12:22;;;;;;;11.98;9.15;;;;;;;;;;5126805;27;20137;-69
2022/11/21 13:15:04;;;;;;;15.27;9.32;;;;;;;;;;5103503;28;20100;-68
2022/11/21 13:17:30;;;;;;;15.55;9.85;;;;;;;;;;5098942;27;20463;-68
2022/11/21 13:19:56;;;;;;;11.23;8.13;;;;;;;;;;5106083;28;20048;-68
2022/11/21 13:22:34;;;;;;;16.25;10.90;;;;;;;;;;5125137;27;20047;-68
2022/11/21 13:25:21;;;;;;;12.52;9.18;;;;;;;;;;5089026;28;20047;-68
2022/11/21 13:27:47;;;;;;;14.95;9.15;;;;;;;;;;5117769;28;20670;-68
2022/11/21 13:30:14;;;;;;;14.80;8.82;;;;;;;;;;5106715;28;20099;-68
2022/11/21 13:32:41;;;;;;;11.15;8.60;;;;;;;;;;5104630;28;20401;-68
2022/11/21 13:35:19;;;;;;;16.17;9.85;;;;;;;;;;5102183;28;20822;-69
2022/11/21 13:37:48;;;;;;;15.38;11.13;;;;;;;;;;5086756;28;20043;-68
2022/11/21 13:40:28;;;;;;;17.25;9.90;;;;;;;;;;5095315;28;20035;-68
2022/11/21 13:43:14;;;;;;;16.55;9.98;;;;;;;;;;5119324;28;20079;-68
2022/11/21 13:45:45;;;;;;;16.42;10.23;;;;;;;;;;5103171;28;20390;-68
2022/11/21 13:48:17;;;;;;;19.92;10.73;;;;;;;;;;5103117;28;20400;-68
2022/11/21 13:50:52;;;;;;;17.00;10.98;;;;;;;;;;5117650;28;20464;-68
2022/11/21 13:53:18;;;;;;;16.80;10.93;;;;;;;;;;5120992;28;20061;-69
2022/11/21 13:55:44;;;;;;;17.90;11.38;;;;;;;;;;5106615;28;20039;-67
2022/11/21 13:58:30;;;;;;;17.48;11.38;;;;;;;;;;5101677;28;21264;-68
2022/11/21 14:01:02;;;;;;;18.17;13.00;;;;;;;;;;5104265;28;20043;-68
2022/11/21 14:03:28;;;;;;;19.20;12.43;;;;;;;;;;5124084;28;20201;-68
2022/11/21 14:06:13;;;;;;;18.42;11.35;;;;;;;;;;5101788;28;20063;-68
2022/11/21 14:08:39;;;;;;;16.92;13.00;;;;;;;;;;5114204;28;20434;-68
2022/11/21 14:11:19;;;;;;;21.08;12.45;;;;;;;;;;5110037;28;20400;-68
2022/11/21 14:13:47;;;;;;;18.65;11.60;;;;;;;;;;5109178;28;20400;-68
2022/11/21 14:16:32;;;;;;;19.90;12.80;;;;;;;;;;5105741;28;20392;-68
2022/11/21 14:18:58;;;;;;;17.63;12.55;;;;;;;;;;5118745;28;20076;-68
2022/11/21 14:21:28;;;;;;;19.17;11.55;;;;;;;;;;5118945;28;20099;-63
2022/11/21 14:23:56;;;;;;;19.13;11.95;;;;;;;;;;5104610;28;20496;-63
2022/11/21 14:26:24;;;;;;;20.15;12.93;;;;;;;;;;5104203;28;20092;-64
2022/11/21 14:28:51;;;;;;;15.00;10.88;;;;;;;;;;5120697;28;20044;-64
2022/11/21 14:31:17;;;;;;;20.40;11.68;;;;;;;;;;5126300;28;20066;-63
2022/11/21 14:33:44;;;;;;;21.55;11.52;;;;;;;;;;5115766;28;21646;-63
2022/11/21 14:36:20;;;;;;;18.42;12.77;;;;;;;;;;5117636;27;20084;-64
2022/11/21 14:38:48;;;;;;;18.65;12.25;;;;;;;;;;5099984;27;20039;-64
2022/11/21 14:41:14;;;;;;;15.75;11.23;;;;;;;;;;5128599;27;20442;-63
2022/11/21 14:43:40;;;;;;;20.65;12.88;;;;;;;;;;5115760;27;20036;-64
2022/11/21 14:46:19;;;;;;;22.05;13.32;;;;;;;;;;5120216;27;20376;-63
2022/11/21 14:48:45;;;;;;;18.98;12.27;;;;;;;;;;5122786;27;20288;-63
2022/11/21 14:51:14;;;;;;;19.17;11.77;;;;;;;;;;5109357;27;20181;-63
2022/11/21 14:53:41;;;;;;;20.50;12.45;;;;;;;;;;5117860;27;20047;-63
2022/11/21 14:56:19;;;;;;;25.25;14.00;;;;;;;;;;5105905;27;20039;-63
2022/11/21 14:58:45;;;;;;;20.25;13.13;;;;;;;;;;5124350;27;20038;-64
2022/11/21 15:01:21;;;;;;;21.48;13.52;;;;;;;;;;5126354;27;20565;-63